sensor_id;sensor_type;location;lat;lon;timestamp;temperature;humidity
23813;DHT22;12087;45.190;5.688;2023-08-06T00:01:35;20.00;99.70
23813;DHT22;12087;45.190;5.688;2023-08-06T00:06:58;19.90;99.90
23813;DHT22;12087;45.190;5.688;2023-08-06T00:12:20;19.80;99.90
23813;DHT22;12087;45.190;5.688;2023-08-06T00:17:43;19.80;99.90
23813;DHT22;12087;45.190;5.688;2023-08-06T00:23:06;19.70;99.90
23813;DHT22;12087;45.190;5.688;2023-08-06T00:28:28;19.60;99.90
23813;DHT22;12087;45.190;5.688;2023-08-06T00:33:51;19.60;99.90
23813;DHT22;12087;45.190;5.688;2023-08-06T00:39:14;19.50;99.90
23813;DHT22;12087;45.190;5.688;2023-08-06T00:44:36;19.50;99.90
23813;DHT22;12087;45.190;5.688;2023-08-06T00:49:59;19.40;99.90
23813;DHT22;12087;45.190;5.688;2023-08-06T00:55:22;19.40;99.90
23813;DHT22;12087;45.190;5.688;2023-08-06T01:00:45;19.30;99.90
23813;DHT22;12087;45.190;5.688;2023-08-06T01:06:07;19.30;99.90
23813;DHT22;12087;45.190;5.688;2023-08-06T01:11:38;19.30;99.90
23813;DHT22;12087;45.190;5.688;2023-08-06T01:17:01;19.30;99.90
23813;DHT22;12087;45.190;5.688;2023-08-06T01:22:25;19.30;99.90
23813;DHT22;12087;45.190;5.688;2023-08-06T01:27:49;19.30;99.90
23813;DHT22;12087;45.190;5.688;2023-08-06T01:33:16;19.40;99.90
23813;DHT22;12087;45.190;5.688;2023-08-06T01:38:42;19.30;99.90
23813;DHT22;12087;45.190;5.688;2023-08-06T01:44:05;19.30;99.90
23813;DHT22;12087;45.190;5.688;2023-08-06T01:49:27;19.30;99.90
23813;DHT22;12087;45.190;5.688;2023-08-06T01:54:51;19.30;99.90
23813;DHT22;12087;45.190;5.688;2023-08-06T02:00:13;19.20;99.90
23813;DHT22;12087;45.190;5.688;2023-08-06T02:05:35;19.20;99.90
23813;DHT22;12087;45.190;5.688;2023-08-06T02:10:59;19.20;99.90
23813;DHT22;12087;45.190;5.688;2023-08-06T02:16:22;19.10;99.90
23813;DHT22;12087;45.190;5.688;2023-08-06T02:21:44;19.10;99.90
23813;DHT22;12087;45.190;5.688;2023-08-06T02:27:08;19.10;99.90
23813;DHT22;12087;45.190;5.688;2023-08-06T02:32:30;19.00;99.90
23813;DHT22;12087;45.190;5.688;2023-08-06T02:37:56;19.00;99.90
23813;DHT22;12087;45.190;5.688;2023-08-06T02:43:19;19.00;99.90
23813;DHT22;12087;45.190;5.688;2023-08-06T02:48:42;19.00;99.90
23813;DHT22;12087;45.190;5.688;2023-08-06T02:54:04;18.90;99.90
23813;DHT22;12087;45.190;5.688;2023-08-06T02:59:27;18.90;99.90
23813;DHT22;12087;45.190;5.688;2023-08-06T03:04:50;18.80;99.90
23813;DHT22;12087;45.190;5.688;2023-08-06T03:10:12;18.80;99.90
23813;DHT22;12087;45.190;5.688;2023-08-06T03:15:35;18.70;99.90
23813;DHT22;12087;45.190;5.688;2023-08-06T03:20:58;18.70;99.90
23813;DHT22;12087;45.190;5.688;2023-08-06T03:26:20;18.70;99.90
23813;DHT22;12087;45.190;5.688;2023-08-06T03:31:43;18.70;99.90
23813;DHT22;12087;45.190;5.688;2023-08-06T03:37:06;18.70;99.90
23813;DHT22;12087;45.190;5.688;2023-08-06T03:42:28;18.80;99.90
23813;DHT22;12087;45.190;5.688;2023-08-06T03:47:51;18.70;99.90
23813;DHT22;12087;45.190;5.688;2023-08-06T03:53:14;18.70;99.90
23813;DHT22;12087;45.190;5.688;2023-08-06T03:58:36;18.70;99.90
23813;DHT22;12087;45.190;5.688;2023-08-06T04:03:59;18.80;99.90
23813;DHT22;12087;45.190;5.688;2023-08-06T04:09:22;18.80;99.90
23813;DHT22;12087;45.190;5.688;2023-08-06T04:14:44;18.90;99.90
23813;DHT22;12087;45.190;5.688;2023-08-06T04:20:08;18.90;99.90
23813;DHT22;12087;45.190;5.688;2023-08-06T04:25:31;18.80;99.90
23813;DHT22;12087;45.190;5.688;2023-08-06T04:30:53;18.80;99.90
23813;DHT22;12087;45.190;5.688;2023-08-06T04:36:17;18.80;99.90
23813;DHT22;12087;45.190;5.688;2023-08-06T04:41:39;18.80;99.90
23813;DHT22;12087;45.190;5.688;2023-08-06T04:47:01;18.80;99.90
23813;DHT22;12087;45.190;5.688;2023-08-06T04:52:25;18.80;99.90
23813;DHT22;12087;45.190;5.688;2023-08-06T04:57:48;18.70;99.90
23813;DHT22;12087;45.190;5.688;2023-08-06T05:03:11;18.70;99.90
23813;DHT22;12087;45.190;5.688;2023-08-06T05:08:34;18.60;99.90
23813;DHT22;12087;45.190;5.688;2023-08-06T05:13:56;18.60;99.90
23813;DHT22;12087;45.190;5.688;2023-08-06T05:19:19;18.60;99.90
23813;DHT22;12087;45.190;5.688;2023-08-06T05:24:42;18.60;99.90
23813;DHT22;12087;45.190;5.688;2023-08-06T05:30:06;18.60;99.90
23813;DHT22;12087;45.190;5.688;2023-08-06T05:35:28;18.60;99.90
23813;DHT22;12087;45.190;5.688;2023-08-06T05:40:52;18.50;99.90
23813;DHT22;12087;45.190;5.688;2023-08-06T05:46:14;18.50;99.90
23813;DHT22;12087;45.190;5.688;2023-08-06T05:51:36;18.50;99.90
23813;DHT22;12087;45.190;5.688;2023-08-06T05:56:59;18.40;99.90
23813;DHT22;12087;45.190;5.688;2023-08-06T06:02:22;18.50;99.90
23813;DHT22;12087;45.190;5.688;2023-08-06T06:07:44;18.40;99.90
23813;DHT22;12087;45.190;5.688;2023-08-06T06:13:08;18.40;99.90
23813;DHT22;12087;45.190;5.688;2023-08-06T06:18:30;18.40;99.90
23813;DHT22;12087;45.190;5.688;2023-08-06T06:23:52;18.50;99.90
23813;DHT22;12087;45.190;5.688;2023-08-06T06:29:16;18.50;99.90
23813;DHT22;12087;45.190;5.688;2023-08-06T06:34:38;18.50;99.90
23813;DHT22;12087;45.190;5.688;2023-08-06T06:40:00;18.60;99.90
23813;DHT22;12087;45.190;5.688;2023-08-06T06:45:24;18.60;99.90
23813;DHT22;12087;45.190;5.688;2023-08-06T06:50:47;18.50;99.90
23813;DHT22;12087;45.190;5.688;2023-08-06T06:56:09;18.50;99.90
23813;DHT22;12087;45.190;5.688;2023-08-06T07:01:33;18.40;99.90
23813;DHT22;12087;45.190;5.688;2023-08-06T07:06:55;18.30;99.90
23813;DHT22;12087;45.190;5.688;2023-08-06T07:12:17;18.30;99.90
23813;DHT22;12087;45.190;5.688;2023-08-06T07:17:41;18.30;99.90
23813;DHT22;12087;45.190;5.688;2023-08-06T07:23:03;18.30;99.90
23813;DHT22;12087;45.190;5.688;2023-08-06T07:28:25;18.20;99.90
23813;DHT22;12087;45.190;5.688;2023-08-06T07:33:49;18.10;99.90
23813;DHT22;12087;45.190;5.688;2023-08-06T07:39:11;18.20;99.90
23813;DHT22;12087;45.190;5.688;2023-08-06T07:44:33;18.20;99.90
23813;DHT22;12087;45.190;5.688;2023-08-06T07:49:57;18.30;99.90
23813;DHT22;12087;45.190;5.688;2023-08-06T07:55:19;18.30;99.90
23813;DHT22;12087;45.190;5.688;2023-08-06T08:00:41;18.40;99.90
23813;DHT22;12087;45.190;5.688;2023-08-06T08:06:07;18.50;99.90
23813;DHT22;12087;45.190;5.688;2023-08-06T08:11:29;18.60;99.90
23813;DHT22;12087;45.190;5.688;2023-08-06T08:16:51;18.60;99.90
23813;DHT22;12087;45.190;5.688;2023-08-06T08:22:15;18.60;99.90
23813;DHT22;12087;45.190;5.688;2023-08-06T08:27:37;18.60;99.90
23813;DHT22;12087;45.190;5.688;2023-08-06T08:33:00;18.50;99.90
23813;DHT22;12087;45.190;5.688;2023-08-06T08:38:23;18.40;99.90
23813;DHT22;12087;45.190;5.688;2023-08-06T08:43:46;18.30;99.90
23813;DHT22;12087;45.190;5.688;2023-08-06T08:49:11;18.20;99.90
23813;DHT22;12087;45.190;5.688;2023-08-06T08:54:35;18.30;99.90
23813;DHT22;12087;45.190;5.688;2023-08-06T08:59:59;18.70;99.90
23813;DHT22;12087;45.190;5.688;2023-08-06T09:05:23;19.00;99.90
23813;DHT22;12087;45.190;5.688;2023-08-06T09:10:48;18.90;99.90
23813;DHT22;12087;45.190;5.688;2023-08-06T09:16:11;18.60;99.90
23813;DHT22;12087;45.190;5.688;2023-08-06T09:21:37;18.40;99.90
23813;DHT22;12087;45.190;5.688;2023-08-06T09:27:02;18.30;99.90
23813;DHT22;12087;45.190;5.688;2023-08-06T09:32:25;18.30;99.90
23813;DHT22;12087;45.190;5.688;2023-08-06T09:37:47;18.30;99.90
23813;DHT22;12087;45.190;5.688;2023-08-06T09:43:12;18.50;99.90
23813;DHT22;12087;45.190;5.688;2023-08-06T09:48:35;18.60;99.90
23813;DHT22;12087;45.190;5.688;2023-08-06T09:53:57;18.90;99.90
23813;DHT22;12087;45.190;5.688;2023-08-06T09:59:20;19.00;99.90
23813;DHT22;12087;45.190;5.688;2023-08-06T10:04:44;19.30;99.90
23813;DHT22;12087;45.190;5.688;2023-08-06T10:10:08;19.50;99.90
23813;DHT22;12087;45.190;5.688;2023-08-06T10:15:32;19.50;99.90
23813;DHT22;12087;45.190;5.688;2023-08-06T10:20:59;19.50;99.90
23813;DHT22;12087;45.190;5.688;2023-08-06T10:26:25;19.40;99.90
23813;DHT22;12087;45.190;5.688;2023-08-06T10:31:55;19.40;99.90
23813;DHT22;12087;45.190;5.688;2023-08-06T10:37:20;19.40;99.90
23813;DHT22;12087;45.190;5.688;2023-08-06T10:42:43;19.30;99.90
23813;DHT22;12087;45.190;5.688;2023-08-06T10:48:06;19.30;99.90
23813;DHT22;12087;45.190;5.688;2023-08-06T10:53:29;19.20;99.90
23813;DHT22;12087;45.190;5.688;2023-08-06T10:58:54;19.30;99.90
23813;DHT22;12087;45.190;5.688;2023-08-06T11:04:18;19.60;99.90
23813;DHT22;12087;45.190;5.688;2023-08-06T11:09:40;19.90;99.90
23813;DHT22;12087;45.190;5.688;2023-08-06T11:15:03;20.10;99.90
23813;DHT22;12087;45.190;5.688;2023-08-06T11:20:27;20.70;99.50
23813;DHT22;12087;45.190;5.688;2023-08-06T11:25:49;21.40;98.30
23813;DHT22;12087;45.190;5.688;2023-08-06T11:31:19;21.70;97.90
23813;DHT22;12087;45.190;5.688;2023-08-06T11:36:42;21.90;96.50
23813;DHT22;12087;45.190;5.688;2023-08-06T11:42:05;21.90;96.80
23813;DHT22;12087;45.190;5.688;2023-08-06T11:47:28;22.00;95.90
23813;DHT22;12087;45.190;5.688;2023-08-06T11:52:56;22.00;94.60
23813;DHT22;12087;45.190;5.688;2023-08-06T11:58:18;22.50;94.60
23813;DHT22;12087;45.190;5.688;2023-08-06T12:03:41;22.80;93.40
23813;DHT22;12087;45.190;5.688;2023-08-06T12:09:05;23.10;93.50
23813;DHT22;12087;45.190;5.688;2023-08-06T12:14:27;23.10;93.50
23813;DHT22;12087;45.190;5.688;2023-08-06T12:19:49;23.00;93.40
23813;DHT22;12087;45.190;5.688;2023-08-06T12:25:13;23.30;92.70
23813;DHT22;12087;45.190;5.688;2023-08-06T12:30:35;23.50;92.50
23813;DHT22;12087;45.190;5.688;2023-08-06T12:35:57;23.40;91.00
23813;DHT22;12087;45.190;5.688;2023-08-06T12:41:21;23.20;91.50
23813;DHT22;12087;45.190;5.688;2023-08-06T12:46:43;23.00;91.10
23813;DHT22;12087;45.190;5.688;2023-08-06T12:52:05;22.50;91.70
23813;DHT22;12087;45.190;5.688;2023-08-06T12:57:31;22.00;92.60
23813;DHT22;12087;45.190;5.688;2023-08-06T13:02:54;21.70;92.80
23813;DHT22;12087;45.190;5.688;2023-08-06T13:08:17;21.50;93.00
23813;DHT22;12087;45.190;5.688;2023-08-06T13:13:41;21.40;93.10
23813;DHT22;12087;45.190;5.688;2023-08-06T13:19:03;21.20;93.30
23813;DHT22;12087;45.190;5.688;2023-08-06T13:24:25;21.30;92.70
23813;DHT22;12087;45.190;5.688;2023-08-06T13:29:49;22.30;92.20
23813;DHT22;12087;45.190;5.688;2023-08-06T13:35:11;22.90;92.00
23813;DHT22;12087;45.190;5.688;2023-08-06T13:40:35;22.70;91.40
23813;DHT22;12087;45.190;5.688;2023-08-06T13:45:58;22.60;91.50
23813;DHT22;12087;45.190;5.688;2023-08-06T13:51:20;22.70;91.80
23813;DHT22;12087;45.190;5.688;2023-08-06T13:56:42;23.20;92.00
23813;DHT22;12087;45.190;5.688;2023-08-06T14:02:06;23.10;91.10
23813;DHT22;12087;45.190;5.688;2023-08-06T14:07:28;22.60;91.30
23813;DHT22;12087;45.190;5.688;2023-08-06T14:12:50;22.30;91.40
23813;DHT22;12087;45.190;5.688;2023-08-06T14:18:14;22.50;91.60
23813;DHT22;12087;45.190;5.688;2023-08-06T14:23:37;22.50;91.00
23813;DHT22;12087;45.190;5.688;2023-08-06T14:29:00;22.90;90.90
23813;DHT22;12087;45.190;5.688;2023-08-06T14:34:23;23.00;90.60
23813;DHT22;12087;45.190;5.688;2023-08-06T14:39:46;22.90;90.70
23813;DHT22;12087;45.190;5.688;2023-08-06T14:45:08;22.60;90.30
23813;DHT22;12087;45.190;5.688;2023-08-06T14:50:32;22.70;90.90
23813;DHT22;12087;45.190;5.688;2023-08-06T14:55:55;22.80;90.50
23813;DHT22;12087;45.190;5.688;2023-08-06T15:01:17;22.90;90.80
23813;DHT22;12087;45.190;5.688;2023-08-06T15:06:41;22.80;90.50
23813;DHT22;12087;45.190;5.688;2023-08-06T15:12:04;22.30;91.10
23813;DHT22;12087;45.190;5.688;2023-08-06T15:17:26;22.10;91.50
23813;DHT22;12087;45.190;5.688;2023-08-06T15:22:51;22.10;92.40
23813;DHT22;12087;45.190;5.688;2023-08-06T15:28:14;22.10;91.60
23813;DHT22;12087;45.190;5.688;2023-08-06T15:33:36;22.00;92.80
23813;DHT22;12087;45.190;5.688;2023-08-06T15:39:00;21.80;91.80
23813;DHT22;12087;45.190;5.688;2023-08-06T15:44:22;21.60;92.20
23813;DHT22;12087;45.190;5.688;2023-08-06T15:49:44;21.70;91.70
23813;DHT22;12087;45.190;5.688;2023-08-06T15:55:09;22.00;92.40
23813;DHT22;12087;45.190;5.688;2023-08-06T16:00:31;22.10;91.60
23813;DHT22;12087;45.190;5.688;2023-08-06T16:05:53;21.80;91.50
23813;DHT22;12087;45.190;5.688;2023-08-06T16:11:17;21.60;91.70
23813;DHT22;12087;45.190;5.688;2023-08-06T16:16:39;21.50;92.10
23813;DHT22;12087;45.190;5.688;2023-08-06T16:22:03;21.30;92.00
23813;DHT22;12087;45.190;5.688;2023-08-06T16:27:27;21.40;93.10
23813;DHT22;12087;45.190;5.688;2023-08-06T16:32:49;21.40;92.10
23813;DHT22;12087;45.190;5.688;2023-08-06T16:38:13;21.40;92.00
23813;DHT22;12087;45.190;5.688;2023-08-06T16:43:37;21.30;92.70
23813;DHT22;12087;45.190;5.688;2023-08-06T16:48:59;21.10;92.70
23813;DHT22;12087;45.190;5.688;2023-08-06T16:54:21;20.90;92.80
23813;DHT22;12087;45.190;5.688;2023-08-06T16:59:45;20.90;92.80
23813;DHT22;12087;45.190;5.688;2023-08-06T17:05:08;20.80;92.30
23813;DHT22;12087;45.190;5.688;2023-08-06T17:10:30;20.70;93.00
23813;DHT22;12087;45.190;5.688;2023-08-06T17:15:54;20.70;92.90
23813;DHT22;12087;45.190;5.688;2023-08-06T17:21:16;20.70;92.80
23813;DHT22;12087;45.190;5.688;2023-08-06T17:26:39;20.70;93.20
23813;DHT22;12087;45.190;5.688;2023-08-06T17:32:03;20.70;94.20
23813;DHT22;12087;45.190;5.688;2023-08-06T17:37:26;20.60;94.30
23813;DHT22;12087;45.190;5.688;2023-08-06T17:42:48;20.60;93.80
23813;DHT22;12087;45.190;5.688;2023-08-06T17:48:11;20.50;93.90
23813;DHT22;12087;45.190;5.688;2023-08-06T17:53:36;20.50;93.80
23813;DHT22;12087;45.190;5.688;2023-08-06T17:58:58;20.40;93.90
23813;DHT22;12087;45.190;5.688;2023-08-06T18:04:23;20.40;95.20
23813;DHT22;12087;45.190;5.688;2023-08-06T18:09:45;20.30;94.60
23813;DHT22;12087;45.190;5.688;2023-08-06T18:15:08;20.20;94.30
23813;DHT22;12087;45.190;5.688;2023-08-06T18:20:33;20.20;94.50
23813;DHT22;12087;45.190;5.688;2023-08-06T18:25:55;20.10;95.00
23813;DHT22;12087;45.190;5.688;2023-08-06T18:31:19;20.00;94.70
23813;DHT22;12087;45.190;5.688;2023-08-06T18:36:43;20.00;94.40
23813;DHT22;12087;45.190;5.688;2023-08-06T18:42:06;19.90;94.20
23813;DHT22;12087;45.190;5.688;2023-08-06T18:47:28;19.90;94.80
23813;DHT22;12087;45.190;5.688;2023-08-06T18:52:52;19.80;94.70
23813;DHT22;12087;45.190;5.688;2023-08-06T18:58:15;19.80;94.70
23813;DHT22;12087;45.190;5.688;2023-08-06T19:03:38;19.80;95.00
23813;DHT22;12087;45.190;5.688;2023-08-06T19:09:01;19.70;95.50
23813;DHT22;12087;45.190;5.688;2023-08-06T19:14:24;19.70;95.40
23813;DHT22;12087;45.190;5.688;2023-08-06T19:19:47;19.70;95.80
23813;DHT22;12087;45.190;5.688;2023-08-06T19:25:11;19.70;95.60
23813;DHT22;12087;45.190;5.688;2023-08-06T19:30:33;19.60;95.90
23813;DHT22;12087;45.190;5.688;2023-08-06T19:35:58;19.60;95.80
23813;DHT22;12087;45.190;5.688;2023-08-06T19:41:21;19.50;96.40
23813;DHT22;12087;45.190;5.688;2023-08-06T19:46:43;19.40;96.70
23813;DHT22;12087;45.190;5.688;2023-08-06T19:52:06;19.40;97.10
23813;DHT22;12087;45.190;5.688;2023-08-06T19:57:30;19.40;97.10
23813;DHT22;12087;45.190;5.688;2023-08-06T20:02:52;19.40;97.10
23813;DHT22;12087;45.190;5.688;2023-08-06T20:08:15;19.30;97.20
23813;DHT22;12087;45.190;5.688;2023-08-06T20:13:38;19.30;97.20
23813;DHT22;12087;45.190;5.688;2023-08-06T20:19:00;19.30;97.10
23813;DHT22;12087;45.190;5.688;2023-08-06T20:24:23;19.30;97.50
23813;DHT22;12087;45.190;5.688;2023-08-06T20:29:47;19.20;97.50
23813;DHT22;12087;45.190;5.688;2023-08-06T20:35:09;19.20;97.10
23813;DHT22;12087;45.190;5.688;2023-08-06T20:40:31;19.20;97.40
23813;DHT22;12087;45.190;5.688;2023-08-06T20:45:56;19.20;97.60
23813;DHT22;12087;45.190;5.688;2023-08-06T20:51:21;19.20;98.10
23813;DHT22;12087;45.190;5.688;2023-08-06T20:56:43;19.20;97.60
23813;DHT22;12087;45.190;5.688;2023-08-06T21:02:06;19.20;97.40
23813;DHT22;12087;45.190;5.688;2023-08-06T21:07:29;19.10;97.90
23813;DHT22;12087;45.190;5.688;2023-08-06T21:12:51;19.10;97.70
23813;DHT22;12087;45.190;5.688;2023-08-06T21:18:14;19.00;97.80
23813;DHT22;12087;45.190;5.688;2023-08-06T21:23:37;19.00;98.10
23813;DHT22;12087;45.190;5.688;2023-08-06T21:29:00;18.90;98.20
23813;DHT22;12087;45.190;5.688;2023-08-06T21:34:23;18.90;98.60
23813;DHT22;12087;45.190;5.688;2023-08-06T21:39:47;19.00;98.00
23813;DHT22;12087;45.190;5.688;2023-08-06T21:45:09;18.90;98.30
23813;DHT22;12087;45.190;5.688;2023-08-06T21:50:34;18.80;98.40
23813;DHT22;12087;45.190;5.688;2023-08-06T21:55:57;18.70;98.60
23813;DHT22;12087;45.190;5.688;2023-08-06T22:01:19;18.70;99.10
23813;DHT22;12087;45.190;5.688;2023-08-06T22:06:43;18.70;99.10
23813;DHT22;12087;45.190;5.688;2023-08-06T22:12:06;18.60;99.50
23813;DHT22;12087;45.190;5.688;2023-08-06T22:17:29;18.60;99.60
23813;DHT22;12087;45.190;5.688;2023-08-06T22:22:53;18.60;99.50
23813;DHT22;12087;45.190;5.688;2023-08-06T22:28:16;18.50;99.70
23813;DHT22;12087;45.190;5.688;2023-08-06T22:33:41;18.50;99.20
23813;DHT22;12087;45.190;5.688;2023-08-06T22:39:06;18.60;99.60
23813;DHT22;12087;45.190;5.688;2023-08-06T22:44:33;18.50;99.80
23813;DHT22;12087;45.190;5.688;2023-08-06T22:50:33;18.50;99.60
23813;DHT22;12087;45.190;5.688;2023-08-06T22:56:26;18.40;99.40
23813;DHT22;12087;45.190;5.688;2023-08-06T23:02:03;18.40;99.70
23813;DHT22;12087;45.190;5.688;2023-08-06T23:07:38;18.40;99.50
23813;DHT22;12087;45.190;5.688;2023-08-06T23:13:08;18.30;99.90
23813;DHT22;12087;45.190;5.688;2023-08-06T23:18:38;18.30;99.90
23813;DHT22;12087;45.190;5.688;2023-08-06T23:24:01;18.20;99.90
23813;DHT22;12087;45.190;5.688;2023-08-06T23:29:31;18.10;99.90
23813;DHT22;12087;45.190;5.688;2023-08-06T23:35:02;18.00;99.90
23813;DHT22;12087;45.190;5.688;2023-08-06T23:40:24;17.90;99.90
23813;DHT22;12087;45.190;5.688;2023-08-06T23:45:48;17.90;99.90
23813;DHT22;12087;45.190;5.688;2023-08-06T23:51:10;17.80;99.90
23813;DHT22;12087;45.190;5.688;2023-08-06T23:56:32;17.70;99.90
